Namao — CZ9742 — position and weather

sailwx.info

Track history (hours):
 
Tides and Currents Weather Stations Pressure Air Temp Water Temp Dewpoint Dewpoint Depression Visibility Wind Speed Wind Dir Waves Ship Positions

Oceanographic research ship Namao (Canada)

Last reported at 2017-Nov-20 01:00 UTC. Time now 2017-Nov-20 02:12 UTC.
Position N 50°36' W 096°54'.

Wind from 200 at 2 knots

Barometer 1010.1 mb
Air temperature -9.0 ° C
Dewpoint -13.8 ° C

Date/timePositionNaut miles runAvg speedWind from/ knotsBaromVisibWave heightAir tempDewpointWater temp
2017-Nov-20 01:00N 50°36' W 096°54'0 0.0 200 / 21010.1 -9.0-13.8
2017-Nov-20 00:00N 50°36' W 096°54'0 0.0 230 / 21010.6 -9.0-14.2
2017-Nov-19 23:00N 50°36' W 096°54'0 0.0 210 / 21010.9 -8.1-14.1
2017-Nov-19 22:00N 50°36' W 096°54'0 0.0 160 / 41011.0 -6.6-13.2
2017-Nov-19 21:00N 50°36' W 096°54'0 0.0 170 / 41011.2 -6.4-13.0
2017-Nov-19 20:00N 50°36' W 096°54'0 0.0 160 / 31012.0 -6.6-12.9
2017-Nov-19 19:00N 50°36' W 096°54'0 0.0 100 / 21012.4 -3.6-11.9
2017-Nov-19 18:00N 50°36' W 096°54'0 0.0 210 / 31013.2 -8.4-14.2
2017-Nov-19 17:00N 50°36' W 096°54'0 0.0 220 / 31013.7 -9.5-15.0
2017-Nov-19 16:00N 50°36' W 096°54'0 0.0 230 / 41014.2 -11.2-14.6
2017-Nov-19 15:00N 50°36' W 096°54'0 0.0 230 / 41014.4 -12.4-15.1
2017-Nov-19 14:00N 50°36' W 096°54'0 0.0 220 / 41014.8 -13.2-15.9
2017-Nov-19 13:00N 50°36' W 096°54'0 0.0 270 / 41015.1 -13.3-16.5
2017-Nov-19 12:00N 50°36' W 096°54'0 0.0 260 / 51015.4 -14.4-17.2
2017-Nov-19 11:00N 50°36' W 096°54'0 0.0 260 / 51015.7 -15.0-17.6
2017-Nov-19 10:00N 50°36' W 096°54'0 0.0 260 / 61016.0 -15.4-18.1
2017-Nov-19 09:00N 50°36' W 096°54'0 0.0 240 / 51016.1 -15.3-17.8
2017-Nov-19 08:00N 50°36' W 096°54'0 0.0 250 / 51016.1 -14.9-17.9
2017-Nov-19 07:00N 50°36' W 096°54'0 0.0 270 / 81016.3 -14.0-17.4
2017-Nov-19 06:00N 50°36' W 096°54'0 0.0 260 / 71016.6 -14.1-17.5
2017-Nov-19 05:00N 50°36' W 096°54'0 0.0 270 / 71016.7 -12.7-17.1
2017-Nov-19 04:00N 50°36' W 096°54'0 0.0 260 / 71016.9 -13.4-17.1
2017-Nov-19 03:00N 50°36' W 096°54'0 0.0 250 / 41016.8 -13.6-17.3
2017-Nov-19 02:00N 50°36' W 096°54'0 0.0 230 / 41016.6 -13.2-17.2
2017-Nov-19 01:00N 50°36' W 096°54'0 0.0 250 / 51017.0 -12.4-17.4
2017-Nov-19 00:00N 50°36' W 096°54'0 0.0 250 / 41017.1 -11.6-17.1
2017-Nov-18 23:00N 50°36' W 096°54'0 0.0 250 / 51016.5 -10.6-16.8
2017-Nov-18 22:00N 50°36' W 096°54'0 0.0 260 / 41016.3 -9.6-16.0
2017-Nov-18 21:00N 50°36' W 096°54'0 0.0 280 / 61016.1 -8.7-15.6
2017-Nov-18 20:00N 50°36' W 096°54'0 0.0 280 / 71016.4 -9.6-15.5
2017-Nov-18 19:00N 50°36' W 096°54'0 0.0 290 / 71016.3 -9.9-15.9
2017-Nov-18 18:00N 50°36' W 096°54'0 0.0 310 / 91016.5 -10.2-16.0
2017-Nov-18 17:00N 50°36' W 096°54'0 0.0 310 / 61016.6 -10.1-14.2
2017-Nov-18 16:00N 50°36' W 096°54'0 0.0 310 / 61016.2 -10.0-13.8
2017-Nov-18 15:00N 50°36' W 096°54'0 0.0 340 / 41015.9 -9.9-14.6
2017-Nov-18 14:00N 50°36' W 096°54'0 0.0 310 / 51015.4 -10.0-12.2
2017-Nov-18 13:00N 50°36' W 096°54'0 0.0 310 / 51014.8 -10.7-12.4
2017-Nov-18 12:00N 50°36' W 096°54'0 0.0 290 / 51013.9 -10.5-12.0
2017-Nov-18 11:00N 50°36' W 096°54'0 0.0 300 / 51013.5 -9.8-11.2
2017-Nov-18 10:00N 50°36' W 096°54'0 0.0 290 / 61012.9 -10.1-12.3
2017-Nov-18 09:00N 50°36' W 096°54'0 0.0 290 / 51012.7 -10.5-12.9
2017-Nov-18 08:00N 50°36' W 096°54'0 0.0 280 / 51011.9 -10.9-13.1
2017-Nov-18 07:00N 50°36' W 096°54'0 0.0 280 / 51011.5 -11.3-13.6
2017-Nov-18 06:00N 50°36' W 096°54'0 0.0 320 / 51010.5 -10.2-13.3
2017-Nov-18 05:00N 50°36' W 096°54'0 0.0 310 / 41010.6 -10.2-13.1
2017-Nov-18 04:00N 50°36' W 096°54'0 0.0 280 / 31010.2 -10.0-13.2
2017-Nov-18 03:00N 50°36' W 096°54'0 0.0 240 / 21009.5 -9.3-12.9
2017-Nov-18 02:00N 50°36' W 096°54'0 0.0 300 / 31009.4 -8.4-13.1
2017-Nov-18 01:00N 50°36' W 096°54'0 0.0 280 / 31008.4 -7.7-13.0
2017-Nov-18 00:00N 50°36' W 096°54'0 0.0 290 / 31008.0 -6.9-13.0
2017-Nov-17 23:00N 50°36' W 096°54'0 0.0 310 / 31007.6 -5.7-12.5
2017-Nov-17 22:00N 50°36' W 096°54'0 0.0 290 / 41006.8 -3.9-12.2
2017-Nov-17 21:00N 50°36' W 096°54'0 0.0 290 / 51006.2 -3.5-12.3
2017-Nov-17 20:00N 50°36' W 096°54'0 0.0 290 / 61005.7 -3.4-12.2
2017-Nov-17 19:00N 50°36' W 096°54'0 0.0 280 / 71005.4 -3.7-12.2
2017-Nov-17 18:00N 50°36' W 096°54'0 0.0 280 / 81005.3 -4.2-11.8
2017-Nov-17 17:00N 50°36' W 096°54'0 0.0 270 / 61005.0 -4.6-10.7
2017-Nov-17 16:00N 50°36' W 096°54'0 0.0 270 / 71004.6 -5.5-10.4
2017-Nov-17 15:00N 50°36' W 096°54'0 0.0 230 / 61003.6 -6.3-10.1
2017-Nov-17 14:00N 50°36' W 096°54'0 0.0 240 / 61002.8 -5.7-9.6
2017-Nov-17 13:00N 50°36' W 096°54'0 0.0 260 / 91001.4 -4.1-8.7
2017-Nov-17 12:00N 50°36' W 096°54'0 0.0 240 / 10999.9 -3.2-7.0
2017-Nov-17 11:00N 50°36' W 096°54'0 0.0 230 / 17998.2 -0.5-3.9
2017-Nov-17 10:00N 50°36' W 096°54'0 0.0 190 / 19997.9 -0.9-1.1
2017-Nov-17 09:00N 50°36' W 096°54'0 0.0 190 / 23997.8 -0.6-1.3
2017-Nov-17 08:00N 50°36' W 096°54'0 0.0 180 / 21998.6 -0.9-2.3
2017-Nov-17 07:00N 50°36' W 096°54'0 0.0 170 / 23999.6 -1.6-2.3
2017-Nov-17 06:00N 50°36' W 096°54'0 0.0 180 / 241000.5 -1.4-3.8
2017-Nov-17 05:00N 50°36' W 096°54'0 0.0 160 / 181001.8 -2.6-4.2
2017-Nov-17 04:00N 50°36' W 096°54'0 0.0 160 / 221003.0 -3.0-5.1
2017-Nov-17 03:00N 50°36' W 096°54'0 0.0 150 / 221004.6 -3.3-5.5
2017-Nov-17 02:00N 50°36' W 096°54'0 0.0 150 / 221005.8 -3.6-5.9
2017-Nov-16 22:00N 50°36' W 096°54'0 0.0 130 / 231012.2 -4.6-6.5
2017-Nov-16 21:00N 50°36' W 096°54'0 0.0 130 / 241013.7 -4.9-7.0
2017-Nov-16 20:00N 50°36' W 096°54'0 0.0 130 / 231015.5 -5.4-7.3
2017-Nov-16 19:00N 50°36' W 096°54'0 0.0 130 / 211017.4 -5.7-7.3
2017-Nov-16 18:00N 50°36' W 096°54'0 0.0 130 / 191019.1 -6.1-7.7
2017-Nov-16 17:00N 50°36' W 096°54'0 0.0 130 / 191020.8 -6.9-8.3
2017-Nov-16 16:00N 50°36' W 096°54'0 0.0 140 / 171021.9 -7.7-9.2
2017-Nov-16 15:00N 50°36' W 096°54'0 0.0 120 / 181022.5 -7.8-9.1
2017-Nov-16 14:00N 50°36' W 096°54'0 0.0 140 / 151023.7 -8.6-10.4
2017-Nov-16 13:00N 50°36' W 096°54'0 0.0 160 / 141024.9 -8.7-10.6
2017-Nov-16 12:00N 50°36' W 096°54'0 0.0 120 / 141025.0 -8.3-10.2
2017-Nov-16 11:00N 50°36' W 096°54'0 0.0 120 / 131025.5 -8.2-10.3
2017-Nov-16 10:00N 50°36' W 096°54'0 0.0 100 / 111026.4 -8.1-10.2
2017-Nov-16 09:00N 50°36' W 096°54'0 0.0 090 / 91027.1 -8.5-10.9
2017-Nov-16 08:00N 50°36' W 096°54'0 0.0 110 / 61027.5 -8.2-10.9
2017-Nov-16 07:00N 50°36' W 096°54'0 0.0 100 / 61027.4 -7.8-10.4
2017-Nov-16 06:00N 50°36' W 096°54'0 0.0 070 / 101027.6 -7.9-10.5
2017-Nov-16 05:00N 50°36' W 096°54'0 0.0 060 / 61028.0 -8.2-11.2
2017-Nov-16 04:00N 50°36' W 096°54'0 0.0 050 / 81028.0 -7.6-10.4
2017-Nov-16 03:00N 50°36' W 096°54'0 0.0 050 / 121027.5 -7.1-9.6
2017-Nov-16 02:00N 50°36' W 096°54'0 0.0 040 / 161027.3 -6.8-9.2
2017-Nov-16 01:00N 50°36' W 096°54'0 0.0 030 / 151027.3 -6.5-9.2
2017-Nov-16 00:00N 50°36' W 096°54'0 0.0 020 / 171026.7 -6.1-8.8
2017-Nov-15 23:00N 50°36' W 096°54'0 0.0 020 / 191025.7 -5.7-8.2
2017-Nov-15 22:00N 50°36' W 096°54'0 0.0 010 / 201025.2 -5.6-8.6
2017-Nov-15 21:00N 50°36' W 096°54'0 0.0 360 / 181024.9 -5.5-8.0
2017-Nov-15 20:00N 50°36' W 096°54'0 0.0 010 / 201023.9 -5.6-7.8
2017-Nov-15 19:00N 50°36' W 096°54'0 0.0 010 / 191023.2 -5.6-7.4
2017-Nov-15 18:00N 50°36' W 096°54'0 0.0 350 / 131023.0 -6.4-7.7
2017-Nov-15 17:00N 50°36' W 096°54'0 0.0 350 / 161022.2 -6.5-7.5
2017-Nov-15 16:00N 50°36' W 096°54'0 0.0 350 / 151021.4 -6.5-7.6
2017-Nov-15 15:00N 50°36' W 096°54'0 0.0 350 / 181020.2 -6.3-7.4
2017-Nov-15 14:00N 50°36' W 096°54'0 0.0 340 / 151019.1 -6.0-6.5
2017-Nov-15 13:00N 50°36' W 096°54'0 0.0 350 / 151017.7 -5.9-6.0
2017-Nov-15 12:00N 50°36' W 096°54'0 0.0 340 / 141016.1 -5.4-5.6
2017-Nov-15 11:00N 50°36' W 096°54'0 0.0 340 / 151014.6 -4.9-5.1
2017-Nov-15 10:00N 50°36' W 096°54'0 0.0 320 / 111013.8 -4.3-4.4
2017-Nov-15 09:00N 50°36' W 096°54'0 0.0 320 / 91013.0 -3.7-3.7
2017-Nov-15 08:00N 50°36' W 096°54'0 0.0 320 / 101011.9 -3.3-3.4
2017-Nov-15 07:00N 50°36' W 096°54'0 0.0 320 / 101011.5 -2.3-2.3
2017-Nov-15 06:00N 50°36' W 096°54'0 0.0 280 / 61011.0 -1.8-1.7
2017-Nov-15 05:00N 50°36' W 096°54'0 0.0 260 / 61010.9 -2.2-2.2
2017-Nov-15 04:00N 50°36' W 096°54'0 0.0 300 / 41009.9 -2.2-2.3
2017-Nov-15 03:00N 50°36' W 096°54'0 0.0 330 / 51009.9 -2.3-2.4
2017-Nov-15 02:00N 50°36' W 096°54'0 0.0 330 / 81009.4 -1.9-2.1
2017-Nov-15 01:00N 50°36' W 096°54'0 0.0 330 / 91008.9 -1.7-1.8
2017-Nov-15 00:00N 50°36' W 096°54'0 0.0 320 / 51008.1 -1.1-1.3
2017-Nov-14 23:00N 50°36' W 096°54'0 0.0 320 / 41007.5 0.4-0.5
2017-Nov-14 22:00N 50°36' W 096°54'0 0.0 280 / 41006.9 1.6-0.7
2017-Nov-14 21:00N 50°36' W 096°54'0 0.0 230 / 81006.9 0.8 0.7
2017-Nov-14 20:00N 50°36' W 096°54'0 0.0 170 / 91005.6 0.5 0.4
2017-Nov-14 18:00N 50°36' W 096°54'0 0.0 140 / 81007.4 -0.6-0.7
2017-Nov-14 17:00N 50°36' W 096°54'0 0.0 200 / 91007.3 -1.0-1.1
2017-Nov-14 16:00N 50°36' W 096°54'0 0.0 190 / 101007.3 -1.3-1.4
2017-Nov-14 15:00N 50°36' W 096°54'0 0.0 190 / 81007.3 -1.5-1.6
2017-Nov-14 14:00N 50°36' W 096°54'0 0.0 170 / 91007.8 -2.5-2.5
2017-Nov-14 13:00N 50°36' W 096°54'0 0.0 170 / 81008.4 -2.3-2.3
2017-Nov-14 12:00N 50°36' W 096°54'0 0.0 190 / 91008.5 -2.2-2.2
2017-Nov-14 11:00N 50°36' W 096°54'0 0.0 170 / 121009.6 -2.8-2.8
2017-Nov-14 10:00N 50°36' W 096°54'0 0.0 180 / 101010.8 -2.2-2.2
2017-Nov-14 09:00N 50°36' W 096°54'0 0.0 170 / 81011.4 -3.3-3.3
2017-Nov-14 08:00N 50°36' W 096°54'0 0.0 180 / 81012.3 -3.5-3.6
2017-Nov-14 07:00N 50°36' W 096°54'0 0.0 190 / 81013.4 -3.7-3.8
2017-Nov-14 06:00N 50°36' W 096°54'0 0.0 170 / 91013.8 -3.3-3.5
2017-Nov-14 05:00N 50°36' W 096°54'0 0.0 180 / 101014.3 -3.0-3.5
2017-Nov-14 04:00N 50°36' W 096°54'0 0.0 180 / 81015.0 -2.8-3.3
2017-Nov-14 03:00N 50°36' W 096°54'0 0.0 170 / 101015.8 -2.1-3.0
2017-Nov-14 02:00N 50°36' W 096°54'0 0.0 150 / 81016.2 -2.1-2.8
2017-Nov-14 01:00N 50°36' W 096°54'0 0.0 150 / 91017.0 -1.7-2.5
2017-Nov-14 00:00N 50°36' W 096°54'0 0.0 180 / 61017.7 -1.8-2.9
2017-Nov-13 23:00N 50°36' W 096°54'0 0.0 160 / 71018.1 -1.2-2.2
2017-Nov-13 22:00N 50°36' W 096°54'0 0.0 160 / 61018.7 -1.2-2.2
2017-Nov-13 21:00N 50°36' W 096°54'0 0.0 160 / 61019.2 -0.4-2.6
2017-Nov-13 20:00N 50°36' W 096°54'0 0.0 150 / 101020.1 -0.8-3.6
2017-Nov-13 19:00N 50°36' W 096°54'0 0.0 150 / 101021.5 -1.6-4.4
2017-Nov-13 18:00N 50°36' W 096°54'0 0.0 160 / 111022.9 -2.7-5.2
2017-Nov-13 17:00N 50°36' W 096°54'0 0.0 150 / 131023.7 -4.1-5.9
2017-Nov-13 16:00N 50°36' W 096°54'0 0.0 150 / 141024.2 -4.8-6.3
2017-Nov-13 15:00N 50°36' W 096°54'0 0.0 140 / 131024.9 -4.8-6.1
2017-Nov-13 14:00N 50°36' W 096°54'0 0.0 140 / 121025.5 -5.5-6.4
2017-Nov-13 13:00N 50°36' W 096°54'0 0.0 150 / 101025.9 -5.7-6.2
2017-Nov-13 12:00N 50°36' W 096°54'0 0.0 160 / 81026.7 -6.5-6.6
2017-Nov-13 11:00N 50°36' W 096°54'0 0.0 170 / 61027.3 -7.2-7.4
2017-Nov-13 10:00N 50°36' W 096°54'0 0.0 190 / 51027.7 -7.7-8.3
2017-Nov-13 09:00N 50°36' W 096°54'0 0.0 180 / 71028.4 -7.3-8.0
2017-Nov-13 08:00N 50°36' W 096°54'0 0.0 180 / 71028.7 -6.8-8.0
2017-Nov-13 07:00N 50°36' W 096°54'0 0.0 190 / 51029.1 -6.9-8.1
2017-Nov-13 06:00N 50°36' W 096°54'0 0.0 210 / 21028.8 -5.9-8.0
2017-Nov-13 05:00N 50°36' W 096°54'0 0.0 230 / 31028.9 -4.9-7.4
2017-Nov-13 04:00N 50°36' W 096°54'0 0.0 230 / 41029.0 -4.7-7.3
2017-Nov-13 03:00N 50°36' W 096°54'0 0.0 230 / 31028.9 -4.5-7.1
2017-Nov-13 02:00N 50°36' W 096°54'0 0.0 230 / 21028.7 -4.1-6.5
2017-Nov-13 01:00N 50°36' W 096°54'0 0.0 240 / 21028.6 -3.6-6.9
2017-Nov-13 00:00N 50°36' W 096°54'0 0.0 300 / 11028.3 -3.4-6.9
2017-Nov-12 23:00N 50°36' W 096°54'0 0.0 1028.3 -3.6-6.8
2017-Nov-12 22:00N 50°36' W 096°54'0 0.0 220 / 21027.9 -3.6-7.1
2017-Nov-12 21:00N 50°36' W 096°54'0 0.0 220 / 31027.7 -3.7-7.0
2017-Nov-12 20:00N 50°36' W 096°54'0 0.0 230 / 41027.8 -3.8-7.1
2017-Nov-12 19:00N 50°36' W 096°54'0 0.0 290 / 41027.8 -3.8-6.8
2017-Nov-12 18:00N 50°36' W 096°54'0 0.0 290 / 51028.1 -4.0-6.6
2017-Nov-12 17:00N 50°36' W 096°54'0 0.0 280 / 61027.6 -4.1-6.6
2017-Nov-12 16:00N 50°36' W 096°54'0 0.0 290 / 51027.6 -4.3-5.9
2017-Nov-12 15:00N 50°36' W 096°54'0 0.0 260 / 41027.5 -4.9-5.0
2017-Nov-12 14:00N 50°36' W 096°54'0 0.0 240 / 41027.4 -5.2-5.3
2017-Nov-12 13:00N 50°36' W 096°54'0 0.0 230 / 41027.0 -5.3-5.8
2017-Nov-12 12:00N 50°36' W 096°54'0 0.0 240 / 51026.9 -5.3-6.4
2017-Nov-12 11:00N 50°36' W 096°54'0 0.0 230 / 31026.5 -5.5-6.8
2017-Nov-12 10:00N 50°36' W 096°54'0 0.0 260 / 31026.7 -5.4-7.0
2017-Nov-12 08:00N 50°36' W 096°54'0 0.0 260 / 41026.6 -5.7-7.3
2017-Nov-12 07:00N 50°36' W 096°54'0 0.0 260 / 41026.4 -5.7-7.5
2017-Nov-12 06:00N 50°36' W 096°54'0 0.0 260 / 41026.2 -5.5-7.7
2017-Nov-12 05:00N 50°36' W 096°54'0 0.0 260 / 41025.6 -5.2-7.8
2017-Nov-12 04:00N 50°36' W 096°54'0 0.0 260 / 41025.4 -5.3-8.0
2017-Nov-12 03:00N 50°36' W 096°54'0 0.0 260 / 31025.0 -5.1-8.2
2017-Nov-12 02:00N 50°36' W 096°54'0 0.0 300 / 31024.6 -4.7-8.1
2017-Nov-12 01:00N 50°36' W 096°54'0 0.0 280 / 31024.6 -4.7-7.9
2017-Nov-12 00:00N 50°36' W 096°54'0 0.0 290 / 31024.0 -4.5-8.2
2017-Nov-11 23:00N 50°36' W 096°54'0 0.0 320 / 31023.3 -4.4-8.3
2017-Nov-11 22:00N 50°36' W 096°54'0 0.0 310 / 31022.4 -4.3-8.4
2017-Nov-11 21:00N 50°36' W 096°54'0 0.0 310 / 61021.6 -4.4-8.3
2017-Nov-11 20:00N 50°36' W 096°54'0 0.0 300 / 41020.9 -4.2-7.7
2017-Nov-11 19:00N 50°36' W 096°54'0 0.0 320 / 51020.2 -4.5-7.5
2017-Nov-11 18:00N 50°36' W 096°54'0 0.0 320 / 71019.8 -5.1-7.9
2017-Nov-11 17:00N 50°36' W 096°54'0 0.0 320 / 61019.0 -5.2-7.3
2017-Nov-11 16:00N 50°36' W 096°54'0 0.0 320 / 61018.1 -5.8-7.2
2017-Nov-11 15:00N 50°36' W 096°54'0 0.0 310 / 51017.2 -6.3-7.1
2017-Nov-11 14:00N 50°36' W 096°54'0 0.0 320 / 41016.2 -6.6-7.0
2017-Nov-11 13:00N 50°36' W 096°54'0 0.0 310 / 41015.3 -6.8-7.1
2017-Nov-11 12:00N 50°36' W 096°54'0 0.0 170 / 41014.5 -6.1-7.1
2017-Nov-11 11:00N 50°36' W 096°54'0 0.0 150 / 71014.1 -6.2-6.8
2017-Nov-11 10:00N 50°36' W 096°54'0 0.0 170 / 91014.0 -6.5-6.8
2017-Nov-11 09:00N 50°36' W 096°54'0 0.0 160 / 151013.6 -6.5-6.9
2017-Nov-11 08:00N 50°36' W 096°54'0 0.0 160 / 171013.6 -6.5-7.6
2017-Nov-11 07:00N 50°36' W 096°54'0 0.0 170 / 171014.2 -6.9-8.6
2017-Nov-11 06:00N 50°36' W 096°54'0 0.0 170 / 171014.7 -6.9-10.7
2017-Nov-11 05:00N 50°36' W 096°54'0 0.0 170 / 171015.0 -6.8-10.8
2017-Nov-11 04:00N 50°36' W 096°54'0 0.0 170 / 201015.8 -7.5-11.4
2017-Nov-11 03:00N 50°36' W 096°54'0 0.0 170 / 241016.6 -7.7-11.3
2017-Nov-11 01:00N 50°36' W 096°54'0 0.0 170 / 241018.2 -8.3-10.2
2017-Nov-11 00:00N 50°36' W 096°54'0 0.0 170 / 221019.0 -8.5-9.4
2017-Nov-10 23:00N 50°36' W 096°54'0 0.0 170 / 251020.0 -8.7-10.8
2017-Nov-10 22:00N 50°36' W 096°54'0 0.0 160 / 241020.3 -8.8-10.6
2017-Nov-10 21:00N 50°36' W 096°54'0 0.0 160 / 231021.3 -9.4-10.8
2017-Nov-10 17:00N 50°36' W 096°54'0 0.0 170 / 251026.6 -10.1-16.1
2017-Nov-10 15:00N 50°36' W 096°54'0 0.0 170 / 231029.2 -11.8-15.8
2017-Nov-10 14:00N 50°36' W 096°54'0 0.0 180 / 191030.7 -12.9-16.4
2017-Nov-10 13:00N 50°36' W 096°54'0 0.0 180 / 191031.2 -13.2-16.6
2017-Nov-10 12:00N 50°36' W 096°54'0 0.0 190 / 141032.1 -14.1-17.6
2017-Nov-10 11:00N 50°36' W 096°54'0 0.0 190 / 151033.0 -14.4-17.9
2017-Nov-10 10:00N 50°36' W 096°54'0 0.0 190 / 121033.9 -14.7-17.3
2017-Nov-10 09:00N 50°36' W 096°54'0 0.0 180 / 101034.8 -15.9-17.8
2017-Nov-10 08:00N 50°36' W 096°54'0 0.0 190 / 81035.3 -16.4-18.0
2017-Nov-10 07:00N 50°36' W 096°54'0 0.0 200 / 91035.9 -16.6-18.5
2017-Nov-10 06:00N 50°36' W 096°54'0 0.0 210 / 101036.0 -16.1-18.3
2017-Nov-10 05:00N 50°36' W 096°54'0 0.0 220 / 81036.2 -16.9-19.0
2017-Nov-10 04:00N 50°36' W 096°54'0 0.0 230 / 71036.0 -16.3-18.7
2017-Nov-10 03:00N 50°36' W 096°54'0 0.0 220 / 71035.6 -15.4-18.0
2017-Nov-10 02:00N 50°36' W 096°54'0 0.0 220 / 61035.2 -15.4-18.0
2017-Nov-10 01:00N 50°36' W 096°54'   220 / 41034.9 -14.0-17.9
Track history (hours):
 
Tides and Currents Weather Stations Pressure Air Temp Water Temp Dewpoint Dewpoint Depression Visibility Wind Speed Wind Dir Waves Ship Positions

Oceanographic research ship Namao (Canada)

Last reported at 2017-Nov-20 01:00 UTC. Time now 2017-Nov-20 02:12 UTC.
Position N 50°36' W 096°54'.

Wind from 200 at 2 knots

Barometer 1010.1 mb
Air temperature -9.0 ° C
Dewpoint -13.8 ° C

Date/timePositionNaut miles runAvg speedWind from/ knotsBaromVisibWave heightAir tempDewpointWater temp
2017-Nov-20 01:00N 50°36' W 096°54'0 0.0 200 / 21010.1 -9.0-13.8
2017-Nov-20 00:00N 50°36' W 096°54'0 0.0 230 / 21010.6 -9.0-14.2
2017-Nov-19 23:00N 50°36' W 096°54'0 0.0 210 / 21010.9 -8.1-14.1
2017-Nov-19 22:00N 50°36' W 096°54'0 0.0 160 / 41011.0 -6.6-13.2
2017-Nov-19 21:00N 50°36' W 096°54'0 0.0 170 / 41011.2 -6.4-13.0
2017-Nov-19 20:00N 50°36' W 096°54'0 0.0 160 / 31012.0 -6.6-12.9
2017-Nov-19 19:00N 50°36' W 096°54'0 0.0 100 / 21012.4 -3.6-11.9
2017-Nov-19 18:00N 50°36' W 096°54'0 0.0 210 / 31013.2 -8.4-14.2
2017-Nov-19 17:00N 50°36' W 096°54'0 0.0 220 / 31013.7 -9.5-15.0
2017-Nov-19 16:00N 50°36' W 096°54'0 0.0 230 / 41014.2 -11.2-14.6
2017-Nov-19 15:00N 50°36' W 096°54'0 0.0 230 / 41014.4 -12.4-15.1
2017-Nov-19 14:00N 50°36' W 096°54'0 0.0 220 / 41014.8 -13.2-15.9
2017-Nov-19 13:00N 50°36' W 096°54'0 0.0 270 / 41015.1 -13.3-16.5
2017-Nov-19 12:00N 50°36' W 096°54'0 0.0 260 / 51015.4 -14.4-17.2
2017-Nov-19 11:00N 50°36' W 096°54'0 0.0 260 / 51015.7 -15.0-17.6
2017-Nov-19 10:00N 50°36' W 096°54'0 0.0 260 / 61016.0 -15.4-18.1
2017-Nov-19 09:00N 50°36' W 096°54'0 0.0 240 / 51016.1 -15.3-17.8
2017-Nov-19 08:00N 50°36' W 096°54'0 0.0 250 / 51016.1 -14.9-17.9
2017-Nov-19 07:00N 50°36' W 096°54'0 0.0 270 / 81016.3 -14.0-17.4
2017-Nov-19 06:00N 50°36' W 096°54'0 0.0 260 / 71016.6 -14.1-17.5
2017-Nov-19 05:00N 50°36' W 096°54'0 0.0 270 / 71016.7 -12.7-17.1
2017-Nov-19 04:00N 50°36' W 096°54'0 0.0 260 / 71016.9 -13.4-17.1
2017-Nov-19 03:00N 50°36' W 096°54'0 0.0 250 / 41016.8 -13.6-17.3
2017-Nov-19 02:00N 50°36' W 096°54'0 0.0 230 / 41016.6 -13.2-17.2
2017-Nov-19 01:00N 50°36' W 096°54'0 0.0 250 / 51017.0 -12.4-17.4
2017-Nov-19 00:00N 50°36' W 096°54'0 0.0 250 / 41017.1 -11.6-17.1
2017-Nov-18 23:00N 50°36' W 096°54'0 0.0 250 / 51016.5 -10.6-16.8
2017-Nov-18 22:00N 50°36' W 096°54'0 0.0 260 / 41016.3 -9.6-16.0
2017-Nov-18 21:00N 50°36' W 096°54'0 0.0 280 / 61016.1 -8.7-15.6
2017-Nov-18 20:00N 50°36' W 096°54'0 0.0 280 / 71016.4 -9.6-15.5
2017-Nov-18 19:00N 50°36' W 096°54'0 0.0 290 / 71016.3 -9.9-15.9
2017-Nov-18 18:00N 50°36' W 096°54'0 0.0 310 / 91016.5 -10.2-16.0
2017-Nov-18 17:00N 50°36' W 096°54'0 0.0 310 / 61016.6 -10.1-14.2
2017-Nov-18 16:00N 50°36' W 096°54'0 0.0 310 / 61016.2 -10.0-13.8
2017-Nov-18 15:00N 50°36' W 096°54'0 0.0 340 / 41015.9 -9.9-14.6
2017-Nov-18 14:00N 50°36' W 096°54'0 0.0 310 / 51015.4 -10.0-12.2
2017-Nov-18 13:00N 50°36' W 096°54'0 0.0 310 / 51014.8 -10.7-12.4
2017-Nov-18 12:00N 50°36' W 096°54'0 0.0 290 / 51013.9 -10.5-12.0
2017-Nov-18 11:00N 50°36' W 096°54'0 0.0 300 / 51013.5 -9.8-11.2
2017-Nov-18 10:00N 50°36' W 096°54'0 0.0 290 / 61012.9 -10.1-12.3
2017-Nov-18 09:00N 50°36' W 096°54'0 0.0 290 / 51012.7 -10.5-12.9
2017-Nov-18 08:00N 50°36' W 096°54'0 0.0 280 / 51011.9 -10.9-13.1
2017-Nov-18 07:00N 50°36' W 096°54'0 0.0 280 / 51011.5 -11.3-13.6
2017-Nov-18 06:00N 50°36' W 096°54'0 0.0 320 / 51010.5 -10.2-13.3
2017-Nov-18 05:00N 50°36' W 096°54'0 0.0 310 / 41010.6 -10.2-13.1
2017-Nov-18 04:00N 50°36' W 096°54'0 0.0 280 / 31010.2 -10.0-13.2
2017-Nov-18 03:00N 50°36' W 096°54'0 0.0 240 / 21009.5 -9.3-12.9
2017-Nov-18 02:00N 50°36' W 096°54'0 0.0 300 / 31009.4 -8.4-13.1
2017-Nov-18 01:00N 50°36' W 096°54'0 0.0 280 / 31008.4 -7.7-13.0
2017-Nov-18 00:00N 50°36' W 096°54'0 0.0 290 / 31008.0 -6.9-13.0
2017-Nov-17 23:00N 50°36' W 096°54'0 0.0 310 / 31007.6 -5.7-12.5
2017-Nov-17 22:00N 50°36' W 096°54'0 0.0 290 / 41006.8 -3.9-12.2
2017-Nov-17 21:00N 50°36' W 096°54'0 0.0 290 / 51006.2 -3.5-12.3
2017-Nov-17 20:00N 50°36' W 096°54'0 0.0 290 / 61005.7 -3.4-12.2
2017-Nov-17 19:00N 50°36' W 096°54'0 0.0 280 / 71005.4 -3.7-12.2
2017-Nov-17 18:00N 50°36' W 096°54'0 0.0 280 / 81005.3 -4.2-11.8
2017-Nov-17 17:00N 50°36' W 096°54'0 0.0 270 / 61005.0 -4.6-10.7
2017-Nov-17 16:00N 50°36' W 096°54'0 0.0 270 / 71004.6 -5.5-10.4
2017-Nov-17 15:00N 50°36' W 096°54'0 0.0 230 / 61003.6 -6.3-10.1
2017-Nov-17 14:00N 50°36' W 096°54'0 0.0 240 / 61002.8 -5.7-9.6
2017-Nov-17 13:00N 50°36' W 096°54'0 0.0 260 / 91001.4 -4.1-8.7
2017-Nov-17 12:00N 50°36' W 096°54'0 0.0 240 / 10999.9 -3.2-7.0
2017-Nov-17 11:00N 50°36' W 096°54'0 0.0 230 / 17998.2 -0.5-3.9
2017-Nov-17 10:00N 50°36' W 096°54'0 0.0 190 / 19997.9 -0.9-1.1
2017-Nov-17 09:00N 50°36' W 096°54'0 0.0 190 / 23997.8 -0.6-1.3
2017-Nov-17 08:00N 50°36' W 096°54'0 0.0 180 / 21998.6 -0.9-2.3
2017-Nov-17 07:00N 50°36' W 096°54'0 0.0 170 / 23999.6 -1.6-2.3
2017-Nov-17 06:00N 50°36' W 096°54'0 0.0 180 / 241000.5 -1.4-3.8
2017-Nov-17 05:00N 50°36' W 096°54'0 0.0 160 / 181001.8 -2.6-4.2
2017-Nov-17 04:00N 50°36' W 096°54'0 0.0 160 / 221003.0 -3.0-5.1
2017-Nov-17 03:00N 50°36' W 096°54'0 0.0 150 / 221004.6 -3.3-5.5
2017-Nov-17 02:00N 50°36' W 096°54'0 0.0 150 / 221005.8 -3.6-5.9
2017-Nov-16 22:00N 50°36' W 096°54'0 0.0 130 / 231012.2 -4.6-6.5
2017-Nov-16 21:00N 50°36' W 096°54'0 0.0 130 / 241013.7 -4.9-7.0
2017-Nov-16 20:00N 50°36' W 096°54'0 0.0 130 / 231015.5 -5.4-7.3
2017-Nov-16 19:00N 50°36' W 096°54'0 0.0 130 / 211017.4 -5.7-7.3
2017-Nov-16 18:00N 50°36' W 096°54'0 0.0 130 / 191019.1 -6.1-7.7
2017-Nov-16 17:00N 50°36' W 096°54'0 0.0 130 / 191020.8 -6.9-8.3
2017-Nov-16 16:00N 50°36' W 096°54'0 0.0 140 / 171021.9 -7.7-9.2
2017-Nov-16 15:00N 50°36' W 096°54'0 0.0 120 / 181022.5 -7.8-9.1
2017-Nov-16 14:00N 50°36' W 096°54'0 0.0 140 / 151023.7 -8.6-10.4
2017-Nov-16 13:00N 50°36' W 096°54'0 0.0 160 / 141024.9 -8.7-10.6
2017-Nov-16 12:00N 50°36' W 096°54'0 0.0 120 / 141025.0 -8.3-10.2
2017-Nov-16 11:00N 50°36' W 096°54'0 0.0 120 / 131025.5 -8.2-10.3
2017-Nov-16 10:00N 50°36' W 096°54'0 0.0 100 / 111026.4 -8.1-10.2
2017-Nov-16 09:00N 50°36' W 096°54'0 0.0 090 / 91027.1 -8.5-10.9
2017-Nov-16 08:00N 50°36' W 096°54'0 0.0 110 / 61027.5 -8.2-10.9
2017-Nov-16 07:00N 50°36' W 096°54'0 0.0 100 / 61027.4 -7.8-10.4
2017-Nov-16 06:00N 50°36' W 096°54'0 0.0 070 / 101027.6 -7.9-10.5
2017-Nov-16 05:00N 50°36' W 096°54'0 0.0 060 / 61028.0 -8.2-11.2
2017-Nov-16 04:00N 50°36' W 096°54'0 0.0 050 / 81028.0 -7.6-10.4
2017-Nov-16 03:00N 50°36' W 096°54'0 0.0 050 / 121027.5 -7.1-9.6
2017-Nov-16 02:00N 50°36' W 096°54'0 0.0 040 / 161027.3 -6.8-9.2
2017-Nov-16 01:00N 50°36' W 096°54'0 0.0 030 / 151027.3 -6.5-9.2
2017-Nov-16 00:00N 50°36' W 096°54'0 0.0 020 / 171026.7 -6.1-8.8
2017-Nov-15 23:00N 50°36' W 096°54'0 0.0 020 / 191025.7 -5.7-8.2
2017-Nov-15 22:00N 50°36' W 096°54'0 0.0 010 / 201025.2 -5.6-8.6
2017-Nov-15 21:00N 50°36' W 096°54'0 0.0 360 / 181024.9 -5.5-8.0
2017-Nov-15 20:00N 50°36' W 096°54'0 0.0 010 / 201023.9 -5.6-7.8
2017-Nov-15 19:00N 50°36' W 096°54'0 0.0 010 / 191023.2 -5.6-7.4
2017-Nov-15 18:00N 50°36' W 096°54'0 0.0 350 / 131023.0 -6.4-7.7
2017-Nov-15 17:00N 50°36' W 096°54'0 0.0 350 / 161022.2 -6.5-7.5
2017-Nov-15 16:00N 50°36' W 096°54'0 0.0 350 / 151021.4 -6.5-7.6
2017-Nov-15 15:00N 50°36' W 096°54'0 0.0 350 / 181020.2 -6.3-7.4
2017-Nov-15 14:00N 50°36' W 096°54'0 0.0 340 / 151019.1 -6.0-6.5
2017-Nov-15 13:00N 50°36' W 096°54'0 0.0 350 / 151017.7 -5.9-6.0
2017-Nov-15 12:00N 50°36' W 096°54'0 0.0 340 / 141016.1 -5.4-5.6
2017-Nov-15 11:00N 50°36' W 096°54'0 0.0 340 / 151014.6 -4.9-5.1
2017-Nov-15 10:00N 50°36' W 096°54'0 0.0 320 / 111013.8 -4.3-4.4
2017-Nov-15 09:00N 50°36' W 096°54'0 0.0 320 / 91013.0 -3.7-3.7
2017-Nov-15 08:00N 50°36' W 096°54'0 0.0 320 / 101011.9 -3.3-3.4
2017-Nov-15 07:00N 50°36' W 096°54'0 0.0 320 / 101011.5 -2.3-2.3
2017-Nov-15 06:00N 50°36' W 096°54'0 0.0 280 / 61011.0 -1.8-1.7
2017-Nov-15 05:00N 50°36' W 096°54'0 0.0 260 / 61010.9 -2.2-2.2
2017-Nov-15 04:00N 50°36' W 096°54'0 0.0 300 / 41009.9 -2.2-2.3
2017-Nov-15 03:00N 50°36' W 096°54'0 0.0 330 / 51009.9 -2.3-2.4
2017-Nov-15 02:00N 50°36' W 096°54'0 0.0 330 / 81009.4 -1.9-2.1
2017-Nov-15 01:00N 50°36' W 096°54'0 0.0 330 / 91008.9 -1.7-1.8
2017-Nov-15 00:00N 50°36' W 096°54'0 0.0 320 / 51008.1 -1.1-1.3
2017-Nov-14 23:00N 50°36' W 096°54'0 0.0 320 / 41007.5 0.4-0.5
2017-Nov-14 22:00N 50°36' W 096°54'0 0.0 280 / 41006.9 1.6-0.7
2017-Nov-14 21:00N 50°36' W 096°54'0 0.0 230 / 81006.9 0.8 0.7
2017-Nov-14 20:00N 50°36' W 096°54'0 0.0 170 / 91005.6 0.5 0.4
2017-Nov-14 18:00N 50°36' W 096°54'0 0.0 140 / 81007.4 -0.6-0.7
2017-Nov-14 17:00N 50°36' W 096°54'0 0.0 200 / 91007.3 -1.0-1.1
2017-Nov-14 16:00N 50°36' W 096°54'0 0.0 190 / 101007.3 -1.3-1.4
2017-Nov-14 15:00N 50°36' W 096°54'0 0.0 190 / 81007.3 -1.5-1.6
2017-Nov-14 14:00N 50°36' W 096°54'0 0.0 170 / 91007.8 -2.5-2.5
2017-Nov-14 13:00N 50°36' W 096°54'0 0.0 170 / 81008.4 -2.3-2.3
2017-Nov-14 12:00N 50°36' W 096°54'0 0.0 190 / 91008.5 -2.2-2.2
2017-Nov-14 11:00N 50°36' W 096°54'0 0.0 170 / 121009.6 -2.8-2.8
2017-Nov-14 10:00N 50°36' W 096°54'0 0.0 180 / 101010.8 -2.2-2.2
2017-Nov-14 09:00N 50°36' W 096°54'0 0.0 170 / 81011.4 -3.3-3.3
2017-Nov-14 08:00N 50°36' W 096°54'0 0.0 180 / 81012.3 -3.5-3.6
2017-Nov-14 07:00N 50°36' W 096°54'0 0.0 190 / 81013.4 -3.7-3.8
2017-Nov-14 06:00N 50°36' W 096°54'0 0.0 170 / 91013.8 -3.3-3.5
2017-Nov-14 05:00N 50°36' W 096°54'0 0.0 180 / 101014.3 -3.0-3.5
2017-Nov-14 04:00N 50°36' W 096°54'0 0.0 180 / 81015.0 -2.8-3.3
2017-Nov-14 03:00N 50°36' W 096°54'0 0.0 170 / 101015.8 -2.1-3.0
2017-Nov-14 02:00N 50°36' W 096°54'0 0.0 150 / 81016.2 -2.1-2.8
2017-Nov-14 01:00N 50°36' W 096°54'0 0.0 150 / 91017.0 -1.7-2.5
2017-Nov-14 00:00N 50°36' W 096°54'0 0.0 180 / 61017.7 -1.8-2.9
2017-Nov-13 23:00N 50°36' W 096°54'0 0.0 160 / 71018.1 -1.2-2.2
2017-Nov-13 22:00N 50°36' W 096°54'0 0.0 160 / 61018.7 -1.2-2.2
2017-Nov-13 21:00N 50°36' W 096°54'0 0.0 160 / 61019.2 -0.4-2.6
2017-Nov-13 20:00N 50°36' W 096°54'0 0.0 150 / 101020.1 -0.8-3.6
2017-Nov-13 19:00N 50°36' W 096°54'0 0.0 150 / 101021.5 -1.6-4.4
2017-Nov-13 18:00N 50°36' W 096°54'0 0.0 160 / 111022.9 -2.7-5.2
2017-Nov-13 17:00N 50°36' W 096°54'0 0.0 150 / 131023.7 -4.1-5.9
2017-Nov-13 16:00N 50°36' W 096°54'0 0.0 150 / 141024.2 -4.8-6.3
2017-Nov-13 15:00N 50°36' W 096°54'0 0.0 140 / 131024.9 -4.8-6.1
2017-Nov-13 14:00N 50°36' W 096°54'0 0.0 140 / 121025.5 -5.5-6.4
2017-Nov-13 13:00N 50°36' W 096°54'0 0.0 150 / 101025.9 -5.7-6.2
2017-Nov-13 12:00N 50°36' W 096°54'0 0.0 160 / 81026.7 -6.5-6.6
2017-Nov-13 11:00N 50°36' W 096°54'0 0.0 170 / 61027.3 -7.2-7.4
2017-Nov-13 10:00N 50°36' W 096°54'0 0.0 190 / 51027.7 -7.7-8.3
2017-Nov-13 09:00N 50°36' W 096°54'0 0.0 180 / 71028.4 -7.3-8.0
2017-Nov-13 08:00N 50°36' W 096°54'0 0.0 180 / 71028.7 -6.8-8.0
2017-Nov-13 07:00N 50°36' W 096°54'0 0.0 190 / 51029.1 -6.9-8.1
2017-Nov-13 06:00N 50°36' W 096°54'0 0.0 210 / 21028.8 -5.9-8.0
2017-Nov-13 05:00N 50°36' W 096°54'0 0.0 230 / 31028.9 -4.9-7.4
2017-Nov-13 04:00N 50°36' W 096°54'0 0.0 230 / 41029.0 -4.7-7.3
2017-Nov-13 03:00N 50°36' W 096°54'0 0.0 230 / 31028.9 -4.5-7.1
2017-Nov-13 02:00N 50°36' W 096°54'0 0.0 230 / 21028.7 -4.1-6.5
2017-Nov-13 01:00N 50°36' W 096°54'0 0.0 240 / 21028.6 -3.6-6.9
2017-Nov-13 00:00N 50°36' W 096°54'0 0.0 300 / 11028.3 -3.4-6.9
2017-Nov-12 23:00N 50°36' W 096°54'0 0.0 1028.3 -3.6-6.8
2017-Nov-12 22:00N 50°36' W 096°54'0 0.0 220 / 21027.9 -3.6-7.1
2017-Nov-12 21:00N 50°36' W 096°54'0 0.0 220 / 31027.7 -3.7-7.0
2017-Nov-12 20:00N 50°36' W 096°54'0 0.0 230 / 41027.8 -3.8-7.1
2017-Nov-12 19:00N 50°36' W 096°54'0 0.0 290 / 41027.8 -3.8-6.8
2017-Nov-12 18:00N 50°36' W 096°54'0 0.0 290 / 51028.1 -4.0-6.6
2017-Nov-12 17:00N 50°36' W 096°54'0 0.0 280 / 61027.6 -4.1-6.6
2017-Nov-12 16:00N 50°36' W 096°54'0 0.0 290 / 51027.6 -4.3-5.9
2017-Nov-12 15:00N 50°36' W 096°54'0 0.0 260 / 41027.5 -4.9-5.0
2017-Nov-12 14:00N 50°36' W 096°54'0 0.0 240 / 41027.4 -5.2-5.3
2017-Nov-12 13:00N 50°36' W 096°54'0 0.0 230 / 41027.0 -5.3-5.8
2017-Nov-12 12:00N 50°36' W 096°54'0 0.0 240 / 51026.9 -5.3-6.4
2017-Nov-12 11:00N 50°36' W 096°54'0 0.0 230 / 31026.5 -5.5-6.8
2017-Nov-12 10:00N 50°36' W 096°54'0 0.0 260 / 31026.7 -5.4-7.0
2017-Nov-12 08:00N 50°36' W 096°54'0 0.0 260 / 41026.6 -5.7-7.3
2017-Nov-12 07:00N 50°36' W 096°54'0 0.0 260 / 41026.4 -5.7-7.5
2017-Nov-12 06:00N 50°36' W 096°54'0 0.0 260 / 41026.2 -5.5-7.7
2017-Nov-12 05:00N 50°36' W 096°54'0 0.0 260 / 41025.6 -5.2-7.8
2017-Nov-12 04:00N 50°36' W 096°54'0 0.0 260 / 41025.4 -5.3-8.0
2017-Nov-12 03:00N 50°36' W 096°54'0 0.0 260 / 31025.0 -5.1-8.2
2017-Nov-12 02:00N 50°36' W 096°54'0 0.0 300 / 31024.6 -4.7-8.1
2017-Nov-12 01:00N 50°36' W 096°54'0 0.0 280 / 31024.6 -4.7-7.9
2017-Nov-12 00:00N 50°36' W 096°54'0 0.0 290 / 31024.0 -4.5-8.2
2017-Nov-11 23:00N 50°36' W 096°54'0 0.0 320 / 31023.3 -4.4-8.3
2017-Nov-11 22:00N 50°36' W 096°54'0 0.0 310 / 31022.4 -4.3-8.4
2017-Nov-11 21:00N 50°36' W 096°54'0 0.0 310 / 61021.6 -4.4-8.3
2017-Nov-11 20:00N 50°36' W 096°54'0 0.0 300 / 41020.9 -4.2-7.7
2017-Nov-11 19:00N 50°36' W 096°54'0 0.0 320 / 51020.2 -4.5-7.5
2017-Nov-11 18:00N 50°36' W 096°54'0 0.0 320 / 71019.8 -5.1-7.9
2017-Nov-11 17:00N 50°36' W 096°54'0 0.0 320 / 61019.0 -5.2-7.3
2017-Nov-11 16:00N 50°36' W 096°54'0 0.0 320 / 61018.1 -5.8-7.2
2017-Nov-11 15:00N 50°36' W 096°54'0 0.0 310 / 51017.2 -6.3-7.1
2017-Nov-11 14:00N 50°36' W 096°54'0 0.0 320 / 41016.2 -6.6-7.0
2017-Nov-11 13:00N 50°36' W 096°54'0 0.0 310 / 41015.3 -6.8-7.1
2017-Nov-11 12:00N 50°36' W 096°54'0 0.0 170 / 41014.5 -6.1-7.1
2017-Nov-11 11:00N 50°36' W 096°54'0 0.0 150 / 71014.1 -6.2-6.8
2017-Nov-11 10:00N 50°36' W 096°54'0 0.0 170 / 91014.0 -6.5-6.8
2017-Nov-11 09:00N 50°36' W 096°54'0 0.0 160 / 151013.6 -6.5-6.9
2017-Nov-11 08:00N 50°36' W 096°54'0 0.0 160 / 171013.6 -6.5-7.6
2017-Nov-11 07:00N 50°36' W 096°54'0 0.0 170 / 171014.2 -6.9-8.6
2017-Nov-11 06:00N 50°36' W 096°54'0 0.0 170 / 171014.7 -6.9-10.7
2017-Nov-11 05:00N 50°36' W 096°54'0 0.0 170 / 171015.0 -6.8-10.8
2017-Nov-11 04:00N 50°36' W 096°54'0 0.0 170 / 201015.8 -7.5-11.4
2017-Nov-11 03:00N 50°36' W 096°54'0 0.0 170 / 241016.6 -7.7-11.3
2017-Nov-11 01:00N 50°36' W 096°54'0 0.0 170 / 241018.2 -8.3-10.2
2017-Nov-11 00:00N 50°36' W 096°54'0 0.0 170 / 221019.0 -8.5-9.4
2017-Nov-10 23:00N 50°36' W 096°54'0 0.0 170 / 251020.0 -8.7-10.8
2017-Nov-10 22:00N 50°36' W 096°54'0 0.0 160 / 241020.3 -8.8-10.6
2017-Nov-10 21:00N 50°36' W 096°54'0 0.0 160 / 231021.3 -9.4-10.8
2017-Nov-10 17:00N 50°36' W 096°54'0 0.0 170 / 251026.6 -10.1-16.1
2017-Nov-10 15:00N 50°36' W 096°54'0 0.0 170 / 231029.2 -11.8-15.8
2017-Nov-10 14:00N 50°36' W 096°54'0 0.0 180 / 191030.7 -12.9-16.4
2017-Nov-10 13:00N 50°36' W 096°54'0 0.0 180 / 191031.2 -13.2-16.6
2017-Nov-10 12:00N 50°36' W 096°54'0 0.0 190 / 141032.1 -14.1-17.6
2017-Nov-10 11:00N 50°36' W 096°54'0 0.0 190 / 151033.0 -14.4-17.9
2017-Nov-10 10:00N 50°36' W 096°54'0 0.0 190 / 121033.9 -14.7-17.3
2017-Nov-10 09:00N 50°36' W 096°54'0 0.0 180 / 101034.8 -15.9-17.8
2017-Nov-10 08:00N 50°36' W 096°54'0 0.0 190 / 81035.3 -16.4-18.0
2017-Nov-10 07:00N 50°36' W 096°54'0 0.0 200 / 91035.9 -16.6-18.5
2017-Nov-10 06:00N 50°36' W 096°54'0 0.0 210 / 101036.0 -16.1-18.3
2017-Nov-10 05:00N 50°36' W 096°54'0 0.0 220 / 81036.2 -16.9-19.0
2017-Nov-10 04:00N 50°36' W 096°54'0 0.0 230 / 71036.0 -16.3-18.7
2017-Nov-10 03:00N 50°36' W 096°54'0 0.0 220 / 71035.6 -15.4-18.0
2017-Nov-10 02:00N 50°36' W 096°54'0 0.0 220 / 61035.2 -15.4-18.0
2017-Nov-10 01:00N 50°36' W 096°54'   220 / 41034.9 -14.0-17.9

Dump ship's entire track history